createdAt,value
2022-08-25T00:01:57.970Z,835.95
2022-08-25T00:04:26.090Z,888.15
2022-08-25T00:06:59.427Z,902.63
2022-08-25T00:09:29.424Z,913.10
2022-08-25T00:11:56.276Z,912.15
2022-08-25T00:14:36.941Z,920.70
2022-08-25T00:17:05.797Z,903.78
2022-08-25T00:19:35.288Z,924.55
2022-08-25T00:22:03.072Z,899.95
2022-08-25T00:24:30.500Z,915.40
2022-08-25T00:26:59.289Z,922.13
2022-08-25T00:29:26.985Z,896.97
2022-08-25T00:31:54.962Z,922.25
2022-08-25T00:34:25.575Z,903.95
2022-08-25T00:36:53.042Z,942.83
2022-08-25T00:39:22.427Z,915.60
2022-08-25T00:41:51.446Z,889.20
2022-08-25T00:44:19.254Z,912.83
2022-08-25T00:46:52.509Z,948.60
2022-08-25T00:49:31.915Z,941.47
2022-08-25T00:52:07.723Z,919.53
2022-08-25T00:54:39.506Z,949.47
2022-08-25T00:57:08.945Z,953.58
2022-08-25T00:59:36.548Z,915.45
2022-08-25T01:02:05.795Z,947.10
2022-08-25T01:04:35.241Z,930.47
2022-08-25T01:07:02.764Z,897.45
2022-08-25T01:09:32.453Z,946.10
2022-08-25T01:12:00.456Z,937.42
2022-08-25T01:14:31.453Z,975.42
2022-08-25T01:16:59.325Z,934.15
2022-08-25T01:19:28.797Z,927.47
2022-08-25T01:21:55.887Z,988.80
2022-08-25T01:24:43.450Z,973.55
2022-08-25T01:27:11.221Z,943.75
2022-08-25T01:29:38.622Z,986.20
2022-08-25T01:32:10.883Z,953.15
2022-08-25T01:34:41.105Z,967.13
2022-08-25T01:37:08.911Z,940.50
2022-08-25T01:39:40.513Z,933.63
2022-08-25T01:42:08.937Z,970.33
2022-08-25T01:44:39.137Z,902.50
2022-08-25T01:47:07.188Z,1044.75
2022-08-25T01:49:34.519Z,977.63
2022-08-25T01:52:24.635Z,955.15
2022-08-25T01:54:52.167Z,956.92
2022-08-25T01:57:18.906Z,980.47
2022-08-25T01:59:46.294Z,1036.47
2022-08-25T02:02:13.236Z,978.90
2022-08-25T02:08:58.518Z,1037.07
2022-08-25T02:11:26.120Z,966.08
2022-08-25T02:13:53.040Z,1044.90
2022-08-25T02:16:31.635Z,994.08
2022-08-25T02:18:59.311Z,993.47
2022-08-25T02:21:27.137Z,1017.70
2022-08-25T02:23:54.210Z,1012.55
2022-08-25T02:26:21.074Z,1093.13
2022-08-25T02:28:49.157Z,1018.08
2022-08-25T02:31:17.771Z,1047.05
2022-08-25T02:33:44.737Z,990.25
2022-08-25T02:36:11.921Z,1024.30
2022-08-25T02:38:39.270Z,1063.32
2022-08-25T02:41:15.438Z,1073.47
2022-08-25T02:43:44.089Z,1058.07
2022-08-25T02:46:12.427Z,992.45
2022-08-25T02:48:39.995Z,988.47
2022-08-25T02:51:10.053Z,1050.10
2022-08-25T02:53:40.446Z,1067.60
2022-08-25T02:56:09.621Z,1020.35
2022-08-25T02:58:37.797Z,1075.50
2022-08-25T03:01:06.745Z,1019.58
2022-08-25T03:03:38.768Z,1103.10
2022-08-25T03:06:10.645Z,1031.35
2022-08-25T03:08:37.958Z,1062.85
2022-08-25T03:11:05.825Z,1079.68
2022-08-25T03:13:33.241Z,1021.22
2022-08-25T03:16:01.036Z,1084.43
2022-08-25T03:18:30.195Z,1047.90
2022-08-25T03:20:58.344Z,1109.75
2022-08-25T03:23:25.530Z,1092.95
2022-08-25T03:26:13.354Z,1105.18
2022-08-25T03:28:41.657Z,1010.92
2022-08-25T03:31:09.609Z,1058.78
2022-08-25T03:33:38.270Z,1040.68
2022-08-25T03:36:06.717Z,1053.10
2022-08-25T03:38:33.973Z,1048.97
2022-08-25T03:41:02.098Z,1064.30
2022-08-25T03:43:28.990Z,1102.00
2022-08-25T03:45:55.726Z,1051.05
2022-08-25T03:48:22.677Z,1091.13
2022-08-25T03:50:52.198Z,1018.90
2022-08-25T03:53:20.204Z,1132.70
2022-08-25T03:55:47.710Z,1060.38
2022-08-25T03:58:15.129Z,1116.93
2022-08-25T04:00:42.201Z,1106.93
2022-08-25T04:03:09.317Z,1026.93
2022-08-25T04:05:36.144Z,1092.07
2022-08-25T04:08:03.423Z,1080.28
2022-08-25T04:10:31.449Z,1117.00
2022-08-25T04:12:58.239Z,1081.72
2022-08-25T04:15:30.112Z,1125.68
2022-08-25T04:17:58.923Z,1163.25
2022-08-25T04:20:26.286Z,1082.05
2022-08-25T04:22:52.993Z,1091.38
2022-08-25T04:25:20.150Z,1133.40
2022-08-25T04:27:46.951Z,1080.82
2022-08-25T04:30:14.620Z,1166.38
2022-08-25T04:32:41.465Z,1082.10
2022-08-25T04:35:09.108Z,1155.10
2022-08-25T04:37:35.943Z,1159.18
2022-08-25T04:40:03.160Z,1047.50
2022-08-25T04:42:30.032Z,1106.85
2022-08-25T04:44:56.833Z,1100.53
2022-08-25T04:47:23.857Z,1104.13
2022-08-25T04:49:50.845Z,1081.43
2022-08-25T04:52:17.732Z,1117.03
2022-08-25T04:54:44.959Z,1085.13
2022-08-25T04:57:11.797Z,1061.78
2022-08-25T04:59:38.812Z,1047.28
2022-08-25T05:02:06.650Z,1115.78
2022-08-25T05:04:35.621Z,1016.30
2022-08-25T05:07:03.324Z,969.35
2022-08-25T05:09:32.495Z,988.95
2022-08-25T05:12:00.779Z,978.30
2022-08-25T05:14:27.517Z,915.28
2022-08-25T05:16:58.341Z,941.35
2022-08-25T05:19:26.381Z,894.13
2022-08-25T05:21:53.787Z,893.88
2022-08-25T05:24:22.085Z,895.97
2022-08-25T05:26:49.333Z,878.90
2022-08-25T05:29:16.437Z,881.08
2022-08-25T05:31:49.564Z,829.92
2022-08-25T05:34:18.820Z,802.45
2022-08-25T05:36:46.641Z,791.25
2022-08-25T05:39:13.489Z,818.17
2022-08-25T05:41:40.702Z,763.47
2022-08-25T05:44:08.080Z,780.50
2022-08-25T05:46:34.985Z,746.65
2022-08-25T05:49:01.956Z,736.85
2022-08-25T05:51:29.025Z,708.80
2022-08-25T05:53:55.842Z,683.42
2022-08-25T05:56:22.744Z,639.40
2022-08-25T05:58:50.343Z,698.78
2022-08-25T06:01:45.401Z,651.60
2022-08-25T06:04:13.373Z,693.03
2022-08-25T06:06:40.403Z,665.72
2022-08-25T06:09:09.429Z,729.47
2022-08-25T06:11:39.964Z,734.13
2022-08-25T06:14:09.275Z,783.35
2022-08-25T06:16:36.261Z,830.25
2022-08-25T06:19:03.467Z,791.45
2022-08-25T06:21:30.554Z,764.70
2022-08-25T06:23:57.353Z,781.05
2022-08-25T06:26:24.103Z,740.38
2022-08-25T06:28:52.300Z,725.83
2022-08-25T06:31:20.740Z,690.40
2022-08-25T06:33:48.069Z,704.00
2022-08-25T06:36:15.612Z,616.83
2022-08-25T06:38:42.457Z,590.63
2022-08-25T06:41:10.839Z,559.20
2022-08-25T06:43:37.673Z,572.70
2022-08-25T06:46:13.128Z,526.08
2022-08-25T06:48:40.615Z,492.92
2022-08-25T06:51:08.762Z,483.10
2022-08-25T06:56:07.429Z,461.98
2022-08-25T06:58:34.470Z,468.75
2022-08-25T07:01:32.051Z,422.67
2022-08-25T07:04:00.670Z,448.75
2022-08-25T07:06:29.336Z,435.00
2022-08-25T07:08:56.099Z,456.02
2022-08-25T07:11:22.935Z,451.00
2022-08-25T07:13:51.023Z,465.67
2022-08-25T07:16:20.343Z,455.08
2022-08-25T07:18:48.900Z,454.08
2022-08-25T07:21:18.763Z,436.15
2022-08-25T07:23:47.484Z,429.95
2022-08-25T07:26:37.241Z,424.38
2022-08-25T07:29:12.291Z,441.10
2022-08-25T07:31:39.515Z,428.40
2022-08-25T07:34:26.180Z,429.33
2022-08-25T07:36:54.638Z,419.40
2022-08-25T07:39:23.049Z,393.63
2022-08-25T07:41:52.207Z,395.02
2022-08-25T07:44:20.832Z,350.63
2022-08-25T07:46:48.351Z,358.52
2022-08-25T07:49:17.917Z,342.70
2022-08-25T07:52:04.452Z,331.85
2022-08-25T07:54:35.217Z,329.30
2022-08-25T07:57:04.459Z,305.35
2022-08-25T07:59:39.329Z,312.30
2022-08-25T08:02:18.260Z,326.00
2022-08-25T08:04:49.847Z,322.80
2022-08-25T08:07:23.779Z,316.83
2022-08-25T08:10:36.986Z,361.25
2022-08-25T08:12:54.311Z,405.33
2022-08-25T08:15:21.333Z,422.58
2022-08-25T08:17:49.516Z,424.35
2022-08-25T08:20:17.835Z,469.33
2022-08-25T08:25:21.426Z,448.90
2022-08-25T08:27:51.448Z,461.77
2022-08-25T08:30:25.956Z,451.15
2022-08-25T08:33:09.160Z,492.17
2022-08-25T08:35:37.039Z,514.67
2022-08-25T08:38:05.454Z,544.47
2022-08-25T08:41:07.910Z,520.40
2022-08-25T08:43:35.495Z,588.00
2022-08-25T08:46:04.068Z,557.38
2022-08-25T08:48:46.829Z,602.15
2022-08-25T08:51:23.095Z,639.95
2022-08-25T08:53:59.084Z,628.90
2022-08-25T08:56:34.358Z,631.38
2022-08-25T08:59:38.428Z,694.55
2022-08-25T09:02:13.839Z,650.13
2022-08-25T09:05:04.241Z,610.97
2022-08-25T09:07:36.793Z,589.15
2022-08-25T09:10:10.439Z,568.50
2022-08-25T09:12:48.022Z,518.42
2022-08-25T09:15:54.749Z,485.10
2022-08-25T09:18:50.981Z,490.83
2022-08-25T09:21:36.366Z,458.10
2022-08-25T09:24:26.241Z,444.88
2022-08-25T09:27:18.597Z,448.15
2022-08-25T09:32:31.542Z,439.45
2022-08-25T09:35:01.271Z,442.80
2022-08-25T09:37:28.394Z,437.40
2022-08-25T09:39:55.317Z,457.83
2022-08-25T09:42:49.901Z,477.63
2022-08-25T09:45:36.565Z,480.20
2022-08-25T09:48:20.712Z,501.23
2022-08-25T09:50:55.193Z,486.50
2022-08-25T09:53:22.812Z,489.25
2022-08-25T09:56:04.611Z,504.92
2022-08-25T09:58:32.134Z,534.47
2022-08-25T10:01:18.885Z,565.65
2022-08-25T10:04:01.471Z,567.60
2022-08-25T10:06:34.218Z,547.63
2022-08-25T10:09:07.004Z,512.42
2022-08-25T10:11:46.961Z,490.02
2022-08-25T10:14:25.931Z,496.35
2022-08-25T10:16:53.391Z,468.98
2022-08-25T10:19:27.260Z,441.63
2022-08-25T10:22:06.997Z,429.25
2022-08-25T10:24:36.157Z,450.67
2022-08-25T10:27:12.584Z,431.38
2022-08-25T10:30:11.258Z,419.33
2022-08-25T10:32:51.850Z,381.90
2022-08-25T10:35:37.398Z,432.83
2022-08-25T10:38:33.454Z,405.42
2022-08-25T10:41:44.046Z,422.08
2022-08-25T10:44:37.227Z,464.45
2022-08-25T10:47:34.743Z,452.25
2022-08-25T10:50:16.489Z,465.85
2022-08-25T10:53:05.535Z,474.95
2022-08-25T10:56:07.268Z,474.20
2022-08-25T10:58:57.734Z,475.80
2022-08-25T11:01:33.923Z,471.65
2022-08-25T11:04:12.942Z,496.83
2022-08-25T11:07:02.865Z,452.73
2022-08-25T11:09:39.312Z,421.80
2022-08-25T11:12:31.925Z,412.88
2022-08-25T11:15:20.498Z,427.70
2022-08-25T11:18:14.494Z,397.33
2022-08-25T11:21:08.176Z,386.50
2022-08-25T11:26:14.980Z,380.20
2022-08-25T11:29:05.173Z,368.30
2022-08-25T11:31:42.269Z,376.25
2022-08-25T11:34:14.419Z,404.92
2022-08-25T11:36:49.229Z,360.75
2022-08-25T11:40:00.203Z,363.88
2022-08-25T11:42:45.494Z,377.23
2022-08-25T11:45:42.194Z,367.65
2022-08-25T11:48:38.054Z,354.27
2022-08-25T11:51:30.906Z,336.63
2022-08-25T11:54:16.648Z,365.00
2022-08-25T11:56:50.542Z,341.98
2022-08-25T11:59:52.154Z,298.17
2022-08-25T12:02:41.384Z,316.13
2022-08-25T12:06:10.747Z,307.02
2022-08-25T12:09:00.626Z,305.45
2022-08-25T12:11:43.591Z,277.30
2022-08-25T12:14:21.972Z,253.35
2022-08-25T12:16:51.896Z,238.93
2022-08-25T12:19:38.106Z,221.90
2022-08-25T12:22:04.931Z,245.80
2022-08-25T12:24:52.089Z,291.73
2022-08-25T12:27:36.328Z,297.10
2022-08-25T12:30:23.983Z,304.02
2022-08-25T12:33:31.480Z,315.15
2022-08-25T12:36:01.647Z,315.92
2022-08-25T12:38:42.538Z,387.48
2022-08-25T12:41:19.097Z,393.65
2022-08-25T12:43:48.468Z,368.70
2022-08-25T12:46:21.823Z,392.35
2022-08-25T12:49:11.336Z,392.88
2022-08-25T12:51:53.675Z,375.35
2022-08-25T12:54:36.549Z,360.27
2022-08-25T12:57:25.132Z,389.48
2022-08-25T12:59:59.908Z,424.60
2022-08-25T13:02:56.394Z,382.45
2022-08-25T13:05:29.433Z,391.13
2022-08-25T13:08:36.977Z,449.77
2022-08-25T13:11:20.615Z,425.67
2022-08-25T13:14:14.225Z,451.48
2022-08-25T13:19:21.152Z,454.70
2022-08-25T13:21:49.171Z,435.33
2022-08-25T13:24:21.925Z,430.70
2022-08-25T13:26:53.848Z,427.15
2022-08-25T13:29:26.514Z,390.20
2022-08-25T13:34:34.776Z,362.77
2022-08-25T13:37:30.181Z,351.15
2022-08-25T13:40:17.944Z,324.98
2022-08-25T13:42:55.615Z,336.70
2022-08-25T13:45:26.669Z,326.23
2022-08-25T13:47:55.816Z,341.30
2022-08-25T13:50:26.350Z,334.58
2022-08-25T13:52:56.871Z,367.73
2022-08-25T13:55:27.425Z,360.00
2022-08-25T13:57:56.730Z,351.27
2022-08-25T14:00:34.882Z,402.70
2022-08-25T14:03:08.747Z,380.30
2022-08-25T14:05:42.790Z,398.42
2022-08-25T14:08:32.389Z,387.55
2022-08-25T14:11:15.325Z,407.05
2022-08-25T14:13:45.600Z,384.73
2022-08-25T14:16:21.864Z,384.85
2022-08-25T14:18:58.891Z,390.60
2022-08-25T14:21:29.291Z,384.08
2022-08-25T14:23:57.235Z,389.33
2022-08-25T14:26:24.336Z,436.05
2022-08-25T14:28:53.703Z,446.45
2022-08-25T14:31:25.354Z,431.25
2022-08-25T14:33:56.686Z,429.02
2022-08-25T14:36:23.602Z,449.73
2022-08-25T14:38:54.797Z,459.98
2022-08-25T14:41:23.804Z,434.30
2022-08-25T14:43:50.651Z,434.05
2022-08-25T14:46:21.420Z,397.98
2022-08-25T14:48:54.568Z,412.60
2022-08-25T14:51:23.793Z,377.75
2022-08-25T14:53:53.854Z,384.17
2022-08-25T14:56:20.606Z,381.98
2022-08-25T14:58:51.582Z,360.70
2022-08-25T15:01:29.180Z,394.90
2022-08-25T15:04:13.128Z,384.65
2022-08-25T15:06:43.619Z,388.40
2022-08-25T15:09:13.046Z,440.90
2022-08-25T15:11:43.952Z,431.80
2022-08-25T15:14:12.389Z,478.38
2022-08-25T15:16:43.467Z,489.52
2022-08-25T15:19:14.572Z,485.33
2022-08-25T15:21:44.748Z,488.02
2022-08-25T15:24:17.343Z,481.20
2022-08-25T15:29:23.996Z,532.58
2022-08-25T15:31:51.027Z,491.73
2022-08-25T15:34:18.395Z,531.85
2022-08-25T15:36:45.660Z,543.90
2022-08-25T15:39:12.659Z,517.13
2022-08-25T15:41:39.758Z,551.28
2022-08-25T15:44:12.682Z,535.13
2022-08-25T15:46:41.605Z,535.70
2022-08-25T15:49:11.956Z,516.17
2022-08-25T15:51:39.429Z,527.40
2022-08-25T15:54:06.223Z,527.72
2022-08-25T15:56:32.993Z,541.97
2022-08-25T15:59:03.857Z,539.72
2022-08-25T16:01:35.544Z,549.90
2022-08-25T16:04:03.765Z,570.03
2022-08-25T16:06:32.060Z,569.42
2022-08-25T16:08:58.980Z,591.13
2022-08-25T16:11:28.720Z,588.55
2022-08-25T16:13:57.616Z,596.72
2022-08-25T16:16:26.913Z,566.00
2022-08-25T16:18:54.198Z,586.28
2022-08-25T16:21:29.158Z,615.20
2022-08-25T16:24:00.341Z,564.13
2022-08-25T16:26:30.567Z,653.92
2022-08-25T16:28:58.077Z,654.05
2022-08-25T16:31:26.287Z,689.30
2022-08-25T16:33:56.110Z,679.60
2022-08-25T16:36:27.097Z,636.70
2022-08-25T16:38:54.911Z,683.60
2022-08-25T16:41:26.033Z,708.65
2022-08-25T16:43:53.497Z,714.13
2022-08-25T16:46:21.531Z,729.95
2022-08-25T16:48:50.683Z,703.80
2022-08-25T16:51:22.643Z,710.75
2022-08-25T16:54:22.010Z,702.67
2022-08-25T16:56:54.856Z,707.38
2022-08-25T16:59:23.598Z,755.13
2022-08-25T17:01:51.243Z,710.08
2022-08-25T17:04:18.271Z,749.55
2022-08-25T17:06:49.322Z,741.63
2022-08-25T17:09:22.771Z,693.78
2022-08-25T17:11:54.145Z,721.42
2022-08-25T17:14:21.547Z,768.20
2022-08-25T17:16:48.648Z,738.53
2022-08-25T17:19:19.261Z,759.25
2022-08-25T17:21:46.726Z,763.60
2022-08-25T17:24:14.102Z,755.78
2022-08-25T17:26:42.256Z,764.50
2022-08-25T17:29:10.511Z,739.67
2022-08-25T17:31:39.840Z,801.30
2022-08-25T17:34:09.465Z,752.65
2022-08-25T17:36:36.971Z,790.45
2022-08-25T17:39:04.927Z,809.83
2022-08-25T17:41:32.217Z,763.92
2022-08-25T17:43:59.403Z,778.33
2022-08-25T17:46:27.192Z,776.05
2022-08-25T17:48:54.905Z,799.78
2022-08-25T17:51:22.915Z,811.33
2022-08-25T17:53:50.523Z,830.55
2022-08-25T17:56:19.197Z,808.35
2022-08-25T17:58:47.276Z,854.72
2022-08-25T18:01:22.328Z,813.38
2022-08-25T18:03:49.527Z,799.05
2022-08-25T18:06:17.177Z,791.13
2022-08-25T18:08:45.000Z,833.63
2022-08-25T18:11:19.953Z,850.88
2022-08-25T18:13:47.080Z,858.05
2022-08-25T18:16:14.225Z,829.28
2022-08-25T18:18:42.113Z,847.03
2022-08-25T18:21:15.154Z,858.58
2022-08-25T18:23:42.800Z,890.15
2022-08-25T18:26:12.901Z,884.28
2022-08-25T18:28:40.040Z,854.88
2022-08-25T18:31:12.084Z,919.88
2022-08-25T18:33:42.111Z,866.92
2022-08-25T18:36:09.728Z,906.05
2022-08-25T18:38:58.108Z,895.85
2022-08-25T18:41:26.518Z,900.30
2022-08-25T18:43:53.710Z,936.60
2022-08-25T18:46:22.580Z,890.08
2022-08-25T18:48:52.913Z,927.05
2022-08-25T18:51:23.148Z,879.60
2022-08-25T18:53:51.243Z,927.25
2022-08-25T18:56:22.409Z,934.92
2022-08-25T18:58:49.399Z,876.17
2022-08-25T19:01:17.453Z,958.10
2022-08-25T19:03:45.338Z,899.90
2022-08-25T19:06:12.333Z,941.75
2022-08-25T19:08:42.217Z,945.83
2022-08-25T19:11:10.222Z,948.00
2022-08-25T19:13:37.646Z,933.08
2022-08-25T19:16:13.825Z,959.00
2022-08-25T19:18:45.119Z,927.60
2022-08-25T19:21:11.921Z,982.58
2022-08-25T19:23:39.008Z,949.97
2022-08-25T19:26:08.277Z,967.90
2022-08-25T19:28:41.488Z,1022.38
2022-08-25T19:31:12.922Z,956.50
2022-08-25T19:33:43.889Z,985.08
2022-08-25T19:36:13.239Z,929.42
2022-08-25T19:38:40.757Z,987.95
2022-08-25T19:41:10.483Z,985.33
2022-08-25T19:43:50.527Z,988.00
2022-08-25T19:46:33.069Z,986.42
2022-08-25T19:49:08.487Z,1006.92
2022-08-25T19:51:43.832Z,1042.30
2022-08-25T19:54:13.489Z,984.72
2022-08-25T19:56:43.967Z,1017.45
2022-08-25T19:59:34.382Z,1003.08
2022-08-25T20:02:17.955Z,962.22
2022-08-25T20:04:50.426Z,976.60
2022-08-25T20:07:23.712Z,1044.93
2022-08-25T20:12:23.732Z,989.08
2022-08-25T20:14:52.141Z,965.88
2022-08-25T20:17:23.798Z,1023.35
2022-08-25T20:19:57.045Z,1029.47
2022-08-25T20:22:27.140Z,1012.53
2022-08-25T20:24:59.441Z,978.72
2022-08-25T20:27:38.492Z,976.15
2022-08-25T20:30:10.033Z,1008.00
2022-08-25T20:32:37.324Z,994.83
2022-08-25T20:35:06.659Z,998.88
2022-08-25T20:37:36.463Z,963.45
2022-08-25T20:40:04.835Z,984.72
2022-08-25T20:42:31.831Z,948.03
2022-08-25T20:44:59.086Z,997.22
2022-08-25T20:47:26.164Z,1034.55
2022-08-25T20:49:53.514Z,981.58
2022-08-25T20:52:20.864Z,1029.28
2022-08-25T20:54:50.322Z,1052.95
2022-08-25T20:57:25.724Z,986.38
2022-08-25T20:59:54.291Z,1031.53
2022-08-25T21:02:21.872Z,974.92
2022-08-25T21:04:50.414Z,994.72
2022-08-25T21:07:18.662Z,1031.75
2022-08-25T21:09:46.263Z,1011.17
2022-08-25T21:12:13.386Z,1075.57
2022-08-25T21:14:42.197Z,1004.83
2022-08-25T21:17:12.816Z,1039.88
2022-08-25T21:19:40.241Z,1039.72
2022-08-25T21:22:09.539Z,991.65
2022-08-25T21:24:37.642Z,1031.78
2022-08-25T21:27:04.707Z,1029.63
2022-08-25T21:29:32.871Z,989.80
2022-08-25T21:32:00.197Z,1027.85
2022-08-25T21:34:29.114Z,1019.70
2022-08-25T21:36:57.721Z,1037.18
2022-08-25T21:39:29.675Z,1017.67
2022-08-25T21:42:00.493Z,1077.78
2022-08-25T21:44:28.721Z,1022.67
2022-08-25T21:46:56.491Z,1007.35
2022-08-25T21:49:24.996Z,1039.32
2022-08-25T21:52:00.409Z,1027.18
2022-08-25T21:54:29.193Z,1047.35
2022-08-25T21:57:06.140Z,1055.50
2022-08-25T21:59:40.248Z,1070.25
2022-08-25T22:02:09.328Z,1065.28
2022-08-25T22:04:38.833Z,1030.07
2022-08-25T22:07:07.566Z,1076.97
2022-08-25T22:09:35.542Z,1065.22
2022-08-25T22:12:03.159Z,1054.28
2022-08-25T22:14:30.190Z,1051.60
2022-08-25T22:16:57.145Z,1070.00
2022-08-25T22:19:24.831Z,1030.63
2022-08-25T22:21:52.997Z,998.63
2022-08-25T22:24:20.533Z,1036.07
2022-08-25T22:26:48.602Z,1055.03
2022-08-25T22:29:25.519Z,1092.95
2022-08-25T22:31:59.991Z,1094.30
2022-08-25T22:34:32.114Z,182.43
2022-08-25T22:37:01.043Z,16.70
2022-08-25T22:39:29.128Z,17.67
2022-08-25T22:41:55.895Z,15.85
2022-08-25T22:44:23.527Z,15.25
2022-08-25T22:46:50.626Z,14.52
2022-08-25T22:49:18.429Z,18.90
2022-08-25T22:51:47.020Z,13.90
2022-08-25T22:54:15.221Z,15.70
2022-08-25T22:56:43.438Z,16.05
2022-08-25T22:59:12.789Z,21.02
2022-08-25T23:01:41.065Z,17.27
2022-08-25T23:04:07.977Z,17.05
2022-08-25T23:06:35.231Z,15.90
2022-08-25T23:09:04.362Z,19.65
2022-08-25T23:11:31.140Z,17.02
2022-08-25T23:14:00.453Z,16.73
2022-08-25T23:16:28.252Z,17.38
2022-08-25T23:18:55.504Z,11.70
2022-08-25T23:21:42.425Z,13.90
2022-08-25T23:24:13.989Z,11.75
2022-08-25T23:26:56.647Z,14.57
2022-08-25T23:29:23.859Z,15.88
2022-08-25T23:31:52.205Z,17.23
2022-08-25T23:34:20.599Z,15.88
2022-08-25T23:36:48.180Z,15.68
2022-08-25T23:39:14.869Z,13.50
2022-08-25T23:41:41.836Z,10.77
2022-08-25T23:44:17.389Z,12.10
2022-08-25T23:46:45.296Z,15.98
2022-08-25T23:49:14.512Z,9.80
2022-08-25T23:51:45.885Z,14.57
2022-08-25T23:54:13.353Z,12.30
2022-08-25T23:56:44.506Z,15.93
2022-08-25T23:59:14.492Z,13.00
